Time;durP1;ratioP1;P1;durP2;ratioP2;P2;SDS_P1;SDS_P2;PMS_P1;PMS_P2;Temp;Humidity;BMP_temperature;BMP_pressure;BME280_temperature;BME280_humidity;BME280_pressure;Samples;Min_cycle;Max_cycle;Signal;HPM_P1;HPM_P2
2022/07/17 00:00:51;;;;;;;;;;;;;;;;;;10421337;28;19931;-63
2022/07/17 00:05:53;;;;;;;;;;;;;;;;;;10421048;28;19932;-63
2022/07/17 00:10:55;;;;;;;;;;;;;;;;;;10420261;28;20373;-63
2022/07/17 00:15:58;;;;;;;;;;;;;;;;;;10420224;28;19931;-63
2022/07/17 00:21:00;;;;;;;;;;;;;;;;;;10420725;28;19936;-63
2022/07/17 00:26:02;;;;;;;;;;;;;;;;;;10419671;28;19925;-63
2022/07/17 00:31:04;;;;;;;;;;;;;;;;;;10420391;28;19932;-63
2022/07/17 00:36:06;;;;;;;;;;;;;;;;;;10419595;28;20488;-63
2022/07/17 00:41:09;;;;;;;;;;;;;;;;;;10419189;28;19925;-63
2022/07/17 00:46:11;;;;;;;;;;;;;;;;;;10401262;28;19925;-63
2022/07/17 00:51:13;;;;;;;;;;;;;;;;;;10419628;28;19925;-63
2022/07/17 00:56:15;;;;;;;;;;;;;;;;;;10418786;28;20388;-63
2022/07/17 01:01:17;;;;;;;;;;;;;;;;;;10419016;28;19925;-63
2022/07/17 01:06:19;;;;;;;;;;;;;;;;;;10418553;28;19929;-62
2022/07/17 01:11:21;;;;;;;;;;;;;;;;;;10400449;28;20300;-63
2022/07/17 01:16:23;;;;;;;;;;;;;;;;;;10417601;28;19925;-63
2022/07/17 01:21:26;;;;;;;;;;;;;;;;;;10417729;28;19929;-63
2022/07/17 01:26:28;;;;;;;;;;;;;;;;;;10418037;28;19935;-63
2022/07/17 01:31:30;;;;;;;;;;;;;;;;;;10418806;28;19948;-63
2022/07/17 01:36:32;;;;;;;;;;;;;;;;;;10417873;28;19926;-63
2022/07/17 01:41:34;;;;;;;;;;;;;;;;;;10416455;28;20299;-62
2022/07/17 01:46:36;;;;;;;;;;;;;;;;;;10416382;28;20394;-62
2022/07/17 01:51:38;;;;;;;;;;;;;;;;;;10416787;28;19926;-63
2022/07/17 01:56:40;;;;;;;;;;;;;;;;;;10417478;28;19929;-63
2022/07/17 02:01:42;;;;;;;;;;;;;;;;;;10416899;28;19925;-62
2022/07/17 02:06:45;;;;;;;;;;;;;;;;;;10416927;28;19971;-63
2022/07/17 02:11:47;;;;;;;;;;;;;;;;;;10416371;28;19925;-63
2022/07/17 02:16:52;;;;;;;;;;;;;;;;;;10415697;28;20376;-62
2022/07/17 02:21:55;;;;;;;;;;;;;;;;;;10416354;28;19932;-62
2022/07/17 02:26:57;;;;;;;;;;;;;;;;;;10416184;28;19929;-62
2022/07/17 02:31:59;;;;;;;;;;;;;;;;;;10415828;28;19925;-62
2022/07/17 02:37:01;;;;;;;;;;;;;;;;;;10415174;28;19952;-62
2022/07/17 02:42:03;;;;;;;;;;;;;;;;;;10415821;28;19925;-62
2022/07/17 02:47:05;;;;;;;;;;;;;;;;;;10415584;28;19925;-62
2022/07/17 02:52:07;;;;;;;;;;;;;;;;;;10397651;28;20498;-63
2022/07/17 02:57:09;;;;;;;;;;;;;;;;;;10415988;28;19925;-62
2022/07/17 03:02:11;;;;;;;;;;;;;;;;;;10415325;28;19929;-62
2022/07/17 03:07:13;;;;;;;;;;;;;;;;;;10415284;28;19926;-62
2022/07/17 03:12:15;;;;;;;;;;;;;;;;;;10414785;28;20269;-62
2022/07/17 03:17:17;;;;;;;;;;;;;;;;;;10414568;28;19932;-62
2022/07/17 03:22:19;;;;;;;;;;;;;;;;;;10414396;28;19925;-62
2022/07/17 03:27:22;;;;;;;;;;;;;;;;;;10414778;28;19929;-62
2022/07/17 03:32:24;;;;;;;;;;;;;;;;;;10414916;28;19925;-62
2022/07/17 03:37:27;;;;;;;;;;;;;;;;;;10415313;28;19931;-62
2022/07/17 03:42:29;;;;;;;;;;;;;;;;;;10415823;28;19925;-62
2022/07/17 03:47:31;;;;;;;;;;;;;;;;;;10421763;28;19952;-62
2022/07/17 03:52:33;;;;;;;;;;;;;;;;;;10421984;28;19936;-62
2022/07/17 03:57:35;;;;;;;;;;;;;;;;;;10421113;28;20276;-62
2022/07/17 04:02:37;;;;;;;;;;;;;;;;;;10421130;28;19933;-62
2022/07/17 04:07:39;;;;;;;;;;;;;;;;;;10420943;28;20016;-62
2022/07/17 04:12:41;;;;;;;;;;;;;;;;;;10420559;28;20384;-62
2022/07/17 04:17:44;;;;;;;;;;;;;;;;;;10420393;28;19932;-62
2022/07/17 04:22:46;;;;;;;;;;;;;;;;;;10419963;28;19947;-62
2022/07/17 04:27:48;;;;;;;;;;;;;;;;;;10420397;28;19932;-62
2022/07/17 04:32:50;;;;;;;;;;;;;;;;;;10419601;28;19925;-62
2022/07/17 04:37:52;;;;;;;;;;;;;;;;;;10402703;28;19929;-62
2022/07/17 04:42:54;;;;;;;;;;;;;;;;;;10420003;28;19929;-62
2022/07/17 04:47:56;;;;;;;;;;;;;;;;;;10419491;28;19932;-62
2022/07/17 04:53:00;;;;;;;;;;;;;;;;;;10419569;28;19925;-62
2022/07/17 04:58:02;;;;;;;;;;;;;;;;;;10417876;28;19929;-63
2022/07/17 05:03:04;;;;;;;;;;;;;;;;;;10418694;28;19997;-62
2022/07/17 05:08:06;;;;;;;;;;;;;;;;;;10418211;28;19952;-62
2022/07/17 05:13:08;;;;;;;;;;;;;;;;;;10418035;28;19932;-62
2022/07/17 05:18:10;;;;;;;;;;;;;;;;;;10418716;28;19925;-62
2022/07/17 05:23:12;;;;;;;;;;;;;;;;;;10417539;28;20308;-62
2022/07/17 05:28:14;;;;;;;;;;;;;;;;;;10417965;28;19925;-65
2022/07/17 05:33:16;;;;;;;;;;;;;;;;;;10417818;28;19932;-65
2022/07/17 05:38:18;;;;;;;;;;;;;;;;;;10417146;28;20315;-65
2022/07/17 05:43:20;;;;;;;;;;;;;;;;;;10417453;28;19932;-65
2022/07/17 05:48:22;;;;;;;;;;;;;;;;;;10417148;28;19935;-65
2022/07/17 05:53:24;;;;;;;;;;;;;;;;;;10417145;28;19931;-65
2022/07/17 05:58:27;;;;;;;;;;;;;;;;;;10417086;28;20025;-65
2022/07/17 06:03:29;;;;;;;;;;;;;;;;;;10416291;28;19932;-65
2022/07/17 06:08:31;;;;;;;;;;;;;;;;;;10415580;28;19932;-65
2022/07/17 06:13:33;;;;;;;;;;;;;;;;;;10415543;28;19932;-65
2022/07/17 06:18:35;;;;;;;;;;;;;;;;;;10416446;28;19931;-65
2022/07/17 06:23:37;;;;;;;;;;;;;;;;;;10416078;28;19932;-65
2022/07/17 06:28:39;;;;;;;;;;;;;;;;;;10415352;28;20384;-65
2022/07/17 06:33:41;;;;;;;;;;;;;;;;;;10416109;28;19929;-65
2022/07/17 06:38:44;;;;;;;;;;;;;;;;;;10416014;28;19936;-65
2022/07/17 06:43:46;;;;;;;;;;;;;;;;;;10415018;28;19925;-65
2022/07/17 06:48:51;;;;;;;;;;;;;;;;;;10415003;28;19925;-65
2022/07/17 06:53:53;;;;;;;;;;;;;;;;;;10415747;28;19933;-65
2022/07/17 06:58:55;;;;;;;;;;;;;;;;;;10415602;28;19932;-65
2022/07/17 07:03:57;;;;;;;;;;;;;;;;;;10414136;28;20027;-65
2022/07/17 07:08:59;;;;;;;;;;;;;;;;;;10408352;28;19925;-65
2022/07/17 07:14:01;;;;;;;;;;;;;;;;;;10374208;28;19926;-65
2022/07/17 07:19:04;;;;;;;;;;;;;;;;;;10377561;28;20372;-65
2022/07/17 07:24:06;;;;;;;;;;;;;;;;;;10391248;28;19925;-65
2022/07/17 07:29:08;;;;;;;;;;;;;;;;;;10421777;28;20399;-65
2022/07/17 07:34:15;;;;;;;;;;;;;;;;;;10422699;28;19971;-65
2022/07/17 07:39:17;;;;;;;;;;;;;;;;;;10417986;28;19931;-65
2022/07/17 07:44:19;;;;;;;;;;;;;;;;;;10421704;28;20387;-66
2022/07/17 07:49:32;;;;;;;;;;;;;;;;;;10420633;28;20339;-66
2022/07/17 07:54:40;;;;;;;;;;;;;;;;;;10421964;28;19925;-66
2022/07/17 07:59:42;;;;;;;;;;;;;;;;;;10421601;28;19932;-66
2022/07/17 08:04:44;;;;;;;;;;;;;;;;;;10420854;28;20315;-66
2022/07/17 08:09:46;;;;;;;;;;;;;;;;;;10421262;28;19925;-66
2022/07/17 08:14:48;;;;;;;;;;;;;;;;;;10420632;28;19925;-66
2022/07/17 08:19:50;;;;;;;;;;;;;;;;;;10420169;28;20297;-66
2022/07/17 08:24:52;;;;;;;;;;;;;;;;;;10420090;28;20382;-66
2022/07/17 08:29:54;;;;;;;;;;;;;;;;;;10453847;22;19925;-65
2022/07/17 08:35:03;;;;;;;;;;;;;;;;;;10461634;28;19925;-65
2022/07/17 08:40:05;;;;;;;;;;;;;;;;;;10461359;28;19925;-66
2022/07/17 08:45:08;;;;;;;;;;;;;;;;;;10460624;28;20287;-66
2022/07/17 08:50:10;;;;;;;;;;;;;;;;;;10461027;28;19935;-66
2022/07/17 08:55:13;;;;;;;;;;;;;;;;;;10460946;28;19932;-66
2022/07/17 09:00:15;;;;;;;;;;;;;;;;;;10460633;28;19925;-66
2022/07/17 09:05:17;;;;;;;;;;;;;;;;;;10459815;28;19929;-66
2022/07/17 09:10:20;;;;;;;;;;;;;;;;;;10459618;28;20019;-66
2022/07/17 09:15:22;;;;;;;;;;;;;;;;;;10459381;28;20478;-66
2022/07/17 09:20:24;;;;;;;;;;;;;;;;;;10459748;28;19925;-66
2022/07/17 09:25:26;;;;;;;;;;;;;;;;;;10459616;28;19925;-66
2022/07/17 09:30:28;;;;;;;;;;;;;;;;;;10458921;28;19925;-66
2022/07/17 09:35:30;;;;;;;;;;;;;;;;;;10458588;28;20221;-66
2022/07/17 09:45:53;;;;;;;;;;;;;;;;;;10458204;28;19983;-67
2022/07/17 09:50:55;;;;;;;;;;;;;;;;;;10458625;28;19925;-66
2022/07/17 09:55:57;;;;;;;;;;;;;;;;;;10457864;28;19925;-66
2022/07/17 10:00:59;;;;;;;;;;;;;;;;;;10458214;28;19925;-67
2022/07/17 10:06:01;;;;;;;;;;;;;;;;;;10458148;28;19925;-66
2022/07/17 10:11:03;;;;;;;;;;;;;;;;;;10457946;28;19932;-67
2022/07/17 10:16:06;;;;;;;;;;;;;;;;;;10457868;28;19935;-67
2022/07/17 10:21:08;;;;;;;;;;;;;;;;;;10457633;28;19924;-67
2022/07/17 10:26:10;;;;;;;;;;;;;;;;;;10456953;28;19928;-67
2022/07/17 10:31:12;;;;;;;;;;;;;;;;;;10456832;28;19925;-67
2022/07/17 10:36:14;;;;;;;;;;;;;;;;;;10457326;28;19924;-66
2022/07/17 10:41:16;;;;;;;;;;;;;;;;;;10455915;28;19925;-67
2022/07/17 10:46:23;;;;;;;;;;;;;;;;;;10457144;28;19979;-66
2022/07/17 10:51:27;;;;;;;;;;;;;;;;;;10456372;28;19925;-67
2022/07/17 10:56:29;;;;;;;;;;;;;;;;;;10464413;28;19925;-67
2022/07/17 11:01:32;;;;;;;;;;;;;;;;;;10465248;28;19925;-67
2022/07/17 11:06:34;;;;;;;;;;;;;;;;;;10465121;28;19925;-67
2022/07/17 11:11:37;;;;;;;;;;;;;;;;;;10465135;28;19931;-67
2022/07/17 11:16:39;;;;;;;;;;;;;;;;;;10464719;28;19931;-67
2022/07/17 11:21:41;;;;;;;;;;;;;;;;;;10464501;28;19925;-65
2022/07/17 11:26:46;;;;;;;;;;;;;;;;;;10464343;28;19932;-62
2022/07/17 11:31:48;;;;;;;;;;;;;;;;;;10463454;28;19925;-62
2022/07/17 11:36:51;;;;;;;;;;;;;;;;;;10463946;28;19925;-63
2022/07/17 11:41:53;;;;;;;;;;;;;;;;;;10463013;28;20273;-70
2022/07/17 11:46:55;;;;;;;;;;;;;;;;;;10462881;28;19932;-61
2022/07/17 11:52:00;;;;;;;;;;;;;;;;;;10463218;28;19929;-61
2022/07/17 11:57:02;;;;;;;;;;;;;;;;;;10462568;28;19932;-61
2022/07/17 12:02:04;;;;;;;;;;;;;;;;;;10462919;28;19924;-62
2022/07/17 12:07:06;;;;;;;;;;;;;;;;;;10461684;28;19929;-61
2022/07/17 12:12:08;;;;;;;;;;;;;;;;;;10462002;28;20382;-61
2022/07/17 12:17:10;;;;;;;;;;;;;;;;;;10462491;28;19928;-60
2022/07/17 12:22:12;;;;;;;;;;;;;;;;;;10462130;28;20047;-60
2022/07/17 12:27:15;;;;;;;;;;;;;;;;;;10462026;28;19925;-60
2022/07/17 12:32:17;;;;;;;;;;;;;;;;;;10461135;28;20300;-60
2022/07/17 12:37:19;;;;;;;;;;;;;;;;;;10461808;28;19925;-61
2022/07/17 12:42:22;;;;;;;;;;;;;;;;;;10461403;28;19931;-60
2022/07/17 12:47:24;;;;;;;;;;;;;;;;;;10460627;28;20283;-60
2022/07/17 12:52:26;;;;;;;;;;;;;;;;;;10461003;28;19925;-60
2022/07/17 12:57:28;;;;;;;;;;;;;;;;;;10460864;28;19925;-60
2022/07/17 13:02:30;;;;;;;;;;;;;;;;;;10459873;28;20303;-60
2022/07/17 13:07:49;;;;;;;;;;;;;;;;;;10460518;28;19924;-60
2022/07/17 13:12:51;;;;;;;;;;;;;;;;;;10459597;28;19924;-60
2022/07/17 13:17:53;;;;;;;;;;;;;;;;;;10458479;28;20394;-60
2022/07/17 13:22:55;;;;;;;;;;;;;;;;;;10459757;28;19925;-60
2022/07/17 13:27:58;;;;;;;;;;;;;;;;;;10459430;28;19925;-60
2022/07/17 13:33:00;;;;;;;;;;;;;;;;;;10459481;28;19932;-60
2022/07/17 13:38:03;;;;;;;;;;;;;;;;;;10459262;28;19931;-60
2022/07/17 13:43:05;;;;;;;;;;;;;;;;;;10458344;28;19948;-61
2022/07/17 13:48:07;;;;;;;;;;;;;;;;;;10458203;28;19934;-60
2022/07/17 13:53:10;;;;;;;;;;;;;;;;;;10458044;28;19972;-60
2022/07/17 13:58:12;;;;;;;;;;;;;;;;;;10458475;28;19999;-61
2022/07/17 14:03:15;;;;;;;;;;;;;;;;;;10458197;28;19925;-60
2022/07/17 14:08:17;;;;;;;;;;;;;;;;;;10458226;28;19924;-60
2022/07/17 14:13:19;;;;;;;;;;;;;;;;;;10458573;28;19931;-60
2022/07/17 14:18:21;;;;;;;;;;;;;;;;;;10457894;28;19936;-60
2022/07/17 14:23:23;;;;;;;;;;;;;;;;;;10457652;28;19931;-60
2022/07/17 14:28:25;;;;;;;;;;;;;;;;;;10457084;28;19933;-60
2022/07/17 14:33:27;;;;;;;;;;;;;;;;;;10457460;28;19925;-60
2022/07/17 14:38:29;;;;;;;;;;;;;;;;;;10457460;28;19940;-60
2022/07/17 14:43:32;;;;;;;;;;;;;;;;;;10456497;28;20391;-61
2022/07/17 14:48:34;;;;;;;;;;;;;;;;;;10456044;28;19931;-60
2022/07/17 14:53:36;;;;;;;;;;;;;;;;;;10456072;28;20291;-61
2022/07/17 14:58:38;;;;;;;;;;;;;;;;;;10456561;28;19932;-61
2022/07/17 15:03:40;;;;;;;;;;;;;;;;;;10456165;28;19951;-61
2022/07/17 15:08:42;;;;;;;;;;;;;;;;;;10456155;28;19947;-60
2022/07/17 15:13:44;;;;;;;;;;;;;;;;;;10457060;28;19925;-61
2022/07/17 15:18:47;;;;;;;;;;;;;;;;;;10455324;28;19924;-61
2022/07/17 15:23:49;;;;;;;;;;;;;;;;;;10456582;28;19928;-61
2022/07/17 15:28:51;;;;;;;;;;;;;;;;;;10456020;28;19932;-61
2022/07/17 15:33:53;;;;;;;;;;;;;;;;;;10456258;28;19925;-60
2022/07/17 15:38:55;;;;;;;;;;;;;;;;;;10457983;28;19931;-60
2022/07/17 15:43:57;;;;;;;;;;;;;;;;;;10463689;28;19925;-61
2022/07/17 15:48:59;;;;;;;;;;;;;;;;;;10463551;28;19932;-60
2022/07/17 15:54:04;;;;;;;;;;;;;;;;;;10462221;28;19932;-61
2022/07/17 15:59:06;;;;;;;;;;;;;;;;;;10463221;28;19929;-61
2022/07/17 16:04:08;;;;;;;;;;;;;;;;;;10461889;28;19939;-61
2022/07/17 16:09:10;;;;;;;;;;;;;;;;;;10463245;28;19924;-61
2022/07/17 16:14:12;;;;;;;;;;;;;;;;;;10461974;28;19948;-61
2022/07/17 16:19:14;;;;;;;;;;;;;;;;;;10461759;28;20269;-60
2022/07/17 16:24:16;;;;;;;;;;;;;;;;;;10462143;28;19924;-61
2022/07/17 16:29:18;;;;;;;;;;;;;;;;;;10461074;28;19924;-61
2022/07/17 16:34:23;;;;;;;;;;;;;;;;;;10461769;28;19928;-61
2022/07/17 16:39:25;;;;;;;;;;;;;;;;;;10461612;28;19925;-61
2022/07/17 16:44:27;;;;;;;;;;;;;;;;;;10461287;28;19925;-61
2022/07/17 16:49:29;;;;;;;;;;;;;;;;;;10461161;28;19925;-61
2022/07/17 16:54:31;;;;;;;;;;;;;;;;;;10460402;28;19935;-60
2022/07/17 16:59:34;;;;;;;;;;;;;;;;;;10460223;28;20382;-60
2022/07/17 17:04:36;;;;;;;;;;;;;;;;;;10459973;28;20360;-60
2022/07/17 17:09:38;;;;;;;;;;;;;;;;;;10460430;28;19931;-60
2022/07/17 17:14:40;;;;;;;;;;;;;;;;;;10460217;28;19925;-60
2022/07/17 17:19:43;;;;;;;;;;;;;;;;;;10459998;28;19928;-60
2022/07/17 17:24:45;;;;;;;;;;;;;;;;;;10459666;28;19928;-61
2022/07/17 17:29:47;;;;;;;;;;;;;;;;;;10459202;28;19925;-60
2022/07/17 17:34:49;;;;;;;;;;;;;;;;;;10458816;28;19931;-60
2022/07/17 17:39:51;;;;;;;;;;;;;;;;;;10458587;28;20398;-61
2022/07/17 17:44:53;;;;;;;;;;;;;;;;;;10458576;28;19935;-60
2022/07/17 17:49:55;;;;;;;;;;;;;;;;;;10458879;28;19932;-60
2022/07/17 17:54:58;;;;;;;;;;;;;;;;;;10458494;28;19925;-60
2022/07/17 18:00:00;;;;;;;;;;;;;;;;;;10458637;28;19925;-60
2022/07/17 18:05:04;;;;;;;;;;;;;;;;;;10457098;28;20400;-60
2022/07/17 18:10:07;;;;;;;;;;;;;;;;;;10457156;28;19929;-60
2022/07/17 18:15:10;;;;;;;;;;;;;;;;;;10457689;28;19925;-60
2022/07/17 18:20:12;;;;;;;;;;;;;;;;;;10456362;28;20402;-60
2022/07/17 18:25:14;;;;;;;;;;;;;;;;;;10457098;28;19931;-60
2022/07/17 18:30:16;;;;;;;;;;;;;;;;;;10456204;28;19933;-60
2022/07/17 18:35:18;;;;;;;;;;;;;;;;;;10456596;28;19925;-61
2022/07/17 18:40:21;;;;;;;;;;;;;;;;;;10453956;28;19924;-60
2022/07/17 18:45:23;;;;;;;;;;;;;;;;;;10455473;28;19925;-61
2022/07/17 18:50:25;;;;;;;;;;;;;;;;;;10456334;28;20295;-60
2022/07/17 18:55:27;;;;;;;;;;;;;;;;;;10457247;28;19924;-60
2022/07/17 19:00:30;;;;;;;;;;;;;;;;;;10455397;28;19939;-61
2022/07/17 19:05:33;;;;;;;;;;;;;;;;;;10456504;28;19928;-60
2022/07/17 19:10:41;;;;;;;;;;;;;;;;;;10451712;28;20023;-60
2022/07/17 19:15:43;;;;;;;;;;;;;;;;;;10461018;28;19932;-60
2022/07/17 19:20:45;;;;;;;;;;;;;;;;;;10464511;28;20288;-60
2022/07/17 19:25:48;;;;;;;;;;;;;;;;;;10463660;28;19925;-60
2022/07/17 19:30:51;;;;;;;;;;;;;;;;;;10463763;28;20004;-60
2022/07/17 19:35:53;;;;;;;;;;;;;;;;;;10463901;28;19929;-60
2022/07/17 19:40:55;;;;;;;;;;;;;;;;;;10463882;28;19925;-60
2022/07/17 19:45:57;;;;;;;;;;;;;;;;;;10461748;28;19925;-60
2022/07/17 19:50:59;;;;;;;;;;;;;;;;;;10463490;28;20303;-60
2022/07/17 19:56:17;;;;;;;;;;;;;;;;;;10462789;28;19948;-60
2022/07/17 20:01:19;;;;;;;;;;;;;;;;;;10462933;28;19928;-60
2022/07/17 20:06:21;;;;;;;;;;;;;;;;;;10462956;28;19929;-60
2022/07/17 20:11:23;;;;;;;;;;;;;;;;;;10462792;28;19963;-60
2022/07/17 20:16:25;;;;;;;;;;;;;;;;;;10461942;28;19947;-60
2022/07/17 20:21:27;;;;;;;;;;;;;;;;;;10462178;28;19932;-60
2022/07/17 20:26:30;;;;;;;;;;;;;;;;;;10461483;28;19932;-60
2022/07/17 20:31:32;;;;;;;;;;;;;;;;;;10461303;28;19928;-60
2022/07/17 20:36:35;;;;;;;;;;;;;;;;;;10461803;28;19933;-60
2022/07/17 20:41:37;;;;;;;;;;;;;;;;;;10460754;28;20280;-60
2022/07/17 20:46:40;;;;;;;;;;;;;;;;;;10433837;22;19962;-63
2022/07/17 20:51:42;;;;;;;;;;;;;;;;;;10420096;28;19926;-63
2022/07/17 20:56:44;;;;;;;;;;;;;;;;;;10419860;28;19925;-63
2022/07/17 21:01:46;;;;;;;;;;;;;;;;;;10418658;28;20372;-65
2022/07/17 21:06:48;;;;;;;;;;;;;;;;;;10419162;28;19929;-63
2022/07/17 21:11:50;;;;;;;;;;;;;;;;;;10418305;28;20413;-63
2022/07/17 21:16:52;;;;;;;;;;;;;;;;;;10418445;28;20357;-63
2022/07/17 21:21:54;;;;;;;;;;;;;;;;;;10418404;28;19999;-63
2022/07/17 21:26:56;;;;;;;;;;;;;;;;;;10417307;28;19925;-63
2022/07/17 21:31:58;;;;;;;;;;;;;;;;;;10417728;28;19926;-63
2022/07/17 21:37:01;;;;;;;;;;;;;;;;;;10417450;28;19925;-63
2022/07/17 21:42:03;;;;;;;;;;;;;;;;;;10417672;28;19935;-64
2022/07/17 21:47:05;;;;;;;;;;;;;;;;;;10376249;28;19925;-63
2022/07/17 21:52:07;;;;;;;;;;;;;;;;;;10376322;28;19926;-63
2022/07/17 21:57:09;;;;;;;;;;;;;;;;;;10401845;28;20015;-64
2022/07/17 22:02:11;;;;;;;;;;;;;;;;;;10417479;28;19932;-64
2022/07/17 22:07:13;;;;;;;;;;;;;;;;;;10417192;28;19972;-64
2022/07/17 22:12:15;;;;;;;;;;;;;;;;;;10416346;28;20388;-63
2022/07/17 22:17:18;;;;;;;;;;;;;;;;;;10416668;28;19925;-64
2022/07/17 22:22:20;;;;;;;;;;;;;;;;;;10416346;28;19925;-63
2022/07/17 22:27:22;;;;;;;;;;;;;;;;;;10416527;28;19925;-63
2022/07/17 22:32:24;;;;;;;;;;;;;;;;;;10415760;28;20292;-64
2022/07/17 22:37:26;;;;;;;;;;;;;;;;;;10415512;28;20410;-63
2022/07/17 22:42:28;;;;;;;;;;;;;;;;;;10415874;28;19925;-63
2022/07/17 22:47:30;;;;;;;;;;;;;;;;;;10400129;28;20276;-64
2022/07/17 22:52:32;;;;;;;;;;;;;;;;;;10411219;28;19925;-64
2022/07/17 22:57:34;;;;;;;;;;;;;;;;;;10429414;28;19926;-63
2022/07/17 23:02:36;;;;;;;;;;;;;;;;;;10429066;28;19925;-63
2022/07/17 23:07:39;;;;;;;;;;;;;;;;;;10429373;28;19964;-63
2022/07/17 23:12:41;;;;;;;;;;;;;;;;;;10429300;28;19925;-63
2022/07/17 23:17:43;;;;;;;;;;;;;;;;;;10428350;28;19929;-63
2022/07/17 23:22:45;;;;;;;;;;;;;;;;;;10427900;28;20299;-63
2022/07/17 23:27:47;;;;;;;;;;;;;;;;;;10428344;28;20295;-63
2022/07/17 23:32:49;;;;;;;;;;;;;;;;;;10429244;28;19925;-63
2022/07/17 23:37:51;;;;;;;;;;;;;;;;;;10428841;28;19933;-63
2022/07/17 23:42:53;;;;;;;;;;;;;;;;;;10427424;28;20300;-63
2022/07/17 23:47:55;;;;;;;;;;;;;;;;;;10428626;28;19925;-63
2022/07/17 23:52:57;;;;;;;;;;;;;;;;;;10428275;28;19933;-63
2022/07/17 23:58:00;;;;;;;;;;;;;;;;;;10410933;28;19932;-63
